Accueil
METAR-TAF:

METAR-TAF

Aéroports :

Cape Newenham, Alaska, États-Unis

latitude: 58-39N, longitude: 162-04W, altitude: 165 m

Observation

Le bulletin a été fait il y a 15 minutes, à 04:55 UTC
Vent 10 kt de sud/sud-ouest avec des rafales jusqu'à 17 kt, variant entre est et ouest/nord-ouest
Température 4°C
Humidité 60%
Pression 984 hPa
Visibilité: 16.1 km
Nuages fragmentés à une hauteur de 3100 ft

METAR: PAEH 080455Z AUTO 20010G17KT 080V290 10SM BKN031 04/M03 A2906 RMK AO2 PK WND 19027/0441 WSHFT 0436 SLP847 T00351030

Heure: 20:10 (05:10 UTC)


TAF: absent

Observations et prévisions météorologiques de plus de 4000 aéroports (messages METAR et TAF).

Les stations disponibles sont représentées par des disques jaunes et rouges sur la carte.

Passer la souris dessus pour voir le nom de la station.

Cliquer dessus pour voir les observations et prévisions météorologiques.

Pour changer de carte: cliquez sur les boutons verts avec une croix noire pour zoomer, sur le bouton vert avec un tiret pour effectuer un zoom arrière, ou sur les flèches vertes pour les cartes adjacentes.


METAR-TAF: